Time;durP1;ratioP1;P1;durP2;ratioP2;P2;SDS_P1;SDS_P2;PMS_P1;PMS_P2;Temp;Humidity;BMP_temperature;BMP_pressure;BME280_temperature;BME280_humidity;BME280_pressure;Samples;Min_cycle;Max_cycle;Signal;HPM_P1;HPM_P2
2022/10/07 00:04:01;;;;;;;6.13;3.05;;;;;;;12.36;67.70;101402.75;10449038;28;20053;-70
2022/10/07 00:09:02;;;;;;;6.65;3.63;;;;;;;12.23;68.09;101407.22;10446420;28;20049;-70
2022/10/07 00:14:08;;;;;;;9.20;3.75;;;;;;;12.15;68.30;101409.59;10453681;28;20089;-71
2022/10/07 00:19:12;;;;;;;9.80;3.30;;;;;;;12.12;68.92;101399.13;10421911;28;20588;-70
2022/10/07 00:24:14;;;;;;;7.85;3.22;;;;;;;12.12;69.28;101409.81;10441547;28;20044;-71
2022/10/07 00:29:16;;;;;;;7.70;3.15;;;;;;;12.12;68.68;101388.44;10423780;28;20057;-69
2022/10/07 00:34:17;;;;;;;10.65;4.75;;;;;;;12.10;68.85;101395.69;10404392;28;20053;-70
2022/10/07 00:39:18;;;;;;;7.43;2.78;;;;;;;12.06;68.54;101391.56;10405579;28;20053;-70
2022/10/07 00:44:32;;;;;;;5.45;2.55;;;;;;;11.99;69.12;101388.44;10401686;28;20056;-71
2022/10/07 00:49:40;;;;;;;10.38;3.70;;;;;;;11.99;69.01;101383.97;10401520;28;20107;-70
2022/10/07 00:54:43;;;;;;;7.78;3.05;;;;;;;12.00;68.68;101372.31;10398609;28;20041;-70
2022/10/07 00:59:44;;;;;;;4.55;2.63;;;;;;;11.95;69.13;101371.78;10399197;28;20045;-70
2022/10/07 01:04:47;;;;;;;5.43;2.22;;;;;;;11.90;68.96;101373.03;10401681;28;20056;-70
2022/10/07 01:09:51;;;;;;;5.60;2.47;;;;;;;11.90;69.14;101357.00;10401126;28;20061;-69
2022/10/07 01:15:07;;;;;;;6.53;2.70;;;;;;;11.83;69.41;101367.25;10401232;28;20053;-70
2022/10/07 01:20:24;;;;;;;5.72;2.70;;;;;;;11.76;69.15;101352.63;10402283;28;20041;-70
2022/10/07 01:25:43;;;;;;;6.50;3.10;;;;;;;11.65;69.38;101342.69;10406725;28;20057;-69
2022/10/07 01:30:51;;;;;;;8.57;2.80;;;;;;;11.63;70.03;101339.25;10430034;28;20056;-71
2022/10/07 01:35:56;;;;;;;4.88;2.58;;;;;;;11.59;69.45;101329.75;10409758;28;20080;-71
2022/10/07 01:41:07;;;;;;;7.00;2.92;;;;;;;11.62;69.93;101324.19;10401858;28;20064;-70
2022/10/07 01:46:14;;;;;;;4.43;2.33;;;;;;;11.55;70.04;101326.44;10407441;28;20048;-71
2022/10/07 01:51:17;;;;;;;5.10;2.67;;;;;;;11.40;70.26;101323.00;10436945;28;20541;-71
2022/10/07 01:56:37;;;;;;;4.05;2.63;;;;;;;11.47;70.36;101310.97;10441431;28;20734;-70
2022/10/07 02:01:52;;;;;;;5.55;2.28;;;;;;;11.62;69.93;101295.75;10400440;28;20535;-70
2022/10/07 02:07:02;;;;;;;7.85;3.40;;;;;;;11.44;69.65;101304.97;10400947;28;20121;-70
2022/10/07 02:12:39;;;;;;;4.20;2.20;;;;;;;11.27;70.88;101291.00;10405068;28;20045;-70
2022/10/07 02:17:48;;;;;;;6.10;2.83;;;;;;;11.26;70.65;101286.59;10382748;28;20577;-69
2022/10/07 02:22:52;;;;;;;6.13;2.13;;;;;;;11.31;70.75;101286.31;10398660;28;20111;-70
2022/10/07 02:27:54;;;;;;;4.23;2.50;;;;;;;11.31;70.81;101272.97;10401158;28;20044;-70
2022/10/07 02:33:02;;;;;;;4.60;3.22;;;;;;;11.15;70.52;101267.81;10397497;28;20049;-69
2022/10/07 02:38:09;;;;;;;5.88;2.95;;;;;;;11.28;70.89;101268.69;10411071;28;20049;-71
2022/10/07 02:43:35;;;;;;;6.65;2.83;;;;;;;11.22;70.45;101266.44;10431215;28;20046;-71
2022/10/07 02:48:41;;;;;;;4.40;2.35;;;;;;;11.41;70.15;101259.84;10402150;28;20044;-71
2022/10/07 02:53:48;;;;;;;8.25;2.10;;;;;;;11.51;69.69;101244.94;10399162;28;20067;-72
2022/10/07 02:58:50;;;;;;;5.13;2.38;;;;;;;11.49;69.58;101255.72;10400103;28;20053;-70
2022/10/07 03:03:51;;;;;;;3.72;2.60;;;;;;;11.43;68.93;101244.63;10396347;28;20061;-71
2022/10/07 03:08:52;;;;;;;6.20;2.38;;;;;;;11.17;68.87;101255.25;10437558;28;20107;-71
2022/10/07 03:13:54;;;;;;;9.55;2.60;;;;;;;11.32;69.34;101256.03;10418426;28;20140;-71
2022/10/07 03:18:55;;;;;;;4.55;2.42;;;;;;;11.17;70.28;101247.25;10420961;28;20905;-71
2022/10/07 03:23:57;;;;;;;5.43;2.60;;;;;;;11.38;69.75;101250.28;10422400;28;20059;-71
2022/10/07 03:28:59;;;;;;;4.50;2.30;;;;;;;11.22;69.05;101249.59;10422004;28;20738;-71
2022/10/07 03:34:01;;;;;;;5.32;3.25;;;;;;;11.24;68.98;101235.19;10453927;28;20798;-71
2022/10/07 03:39:02;;;;;;;5.20;2.83;;;;;;;10.98;69.78;101241.44;10449902;28;20068;-71
2022/10/07 03:44:04;;;;;;;7.47;2.63;;;;;;;10.95;69.80;101242.50;10437874;28;20048;-71
2022/10/07 03:49:05;;;;;;;6.38;2.80;;;;;;;10.90;69.67;101233.94;10443585;28;20123;-70
2022/10/07 03:54:07;;;;;;;8.02;2.63;;;;;;;11.02;69.08;101233.16;10413498;28;20193;-70
2022/10/07 03:59:08;;;;;;;5.80;2.17;;;;;;;10.98;69.76;101214.81;10402037;28;20057;-71
2022/10/07 04:04:10;;;;;;;6.05;2.63;;;;;;;10.95;70.81;101221.19;10409073;28;20053;-70
2022/10/07 04:09:12;;;;;;;10.10;3.58;;;;;;;10.96;70.04;101207.75;10401758;28;20056;-71
2022/10/07 04:14:15;;;;;;;6.10;2.70;;;;;;;10.93;70.58;101213.31;10401686;28;20053;-70
2022/10/07 04:19:17;;;;;;;6.30;2.92;;;;;;;10.90;69.48;101208.19;10393631;28;20975;-69
2022/10/07 04:24:18;;;;;;;7.50;2.30;;;;;;;10.83;70.05;101198.03;10400316;28;20041;-71
2022/10/07 04:29:19;;;;;;;7.35;2.85;;;;;;;10.79;70.70;101200.03;10401350;28;20705;-70
2022/10/07 04:34:21;;;;;;;8.07;3.30;;;;;;;10.90;70.82;101197.53;10429596;28;20056;-71
2022/10/07 04:39:24;;;;;;;5.15;2.72;;;;;;;11.00;69.73;101191.56;10445369;28;20118;-69
2022/10/07 04:44:43;;;;;;;5.85;2.10;;;;;;;10.96;71.03;101189.13;10412182;28;20124;-70
2022/10/07 04:49:44;;;;;;;4.95;2.03;;;;;;;10.81;70.79;101195.47;10431311;28;20046;-71
2022/10/07 04:54:45;;;;;;;6.00;2.17;;;;;;;11.07;71.91;101198.19;10425950;28;20045;-74
2022/10/07 04:59:47;;;;;;;4.20;1.80;;;;;;;11.04;69.94;101203.75;10429263;28;20109;-70
2022/10/07 05:04:48;;;;;;;4.15;2.47;;;;;;;10.88;70.28;101199.41;10387635;28;20061;-70
2022/10/07 05:09:50;;;;;;;6.25;2.53;;;;;;;10.94;70.86;101192.84;10397297;28;20064;-71
2022/10/07 05:14:51;;;;;;;5.47;3.20;;;;;;;10.90;70.78;101197.53;10419420;28;20152;-71
2022/10/07 05:19:53;;;;;;;7.55;3.10;;;;;;;10.83;70.68;101182.06;10445965;28;20059;-68
2022/10/07 05:24:55;;;;;;;6.57;3.53;;;;;;;10.88;70.74;101178.09;10430697;28;20572;-69
2022/10/07 05:29:56;;;;;;;5.50;3.40;;;;;;;10.90;70.52;101170.00;10448474;28;25059;-69
2022/10/07 05:34:57;;;;;;;5.50;2.85;;;;;;;11.08;70.54;101173.25;10441369;28;20526;-69
2022/10/07 05:39:59;;;;;;;6.75;3.17;;;;;;;11.03;70.02;101157.56;10429065;28;20553;-69
2022/10/07 05:45:01;;;;;;;8.38;3.65;;;;;;;11.15;70.56;101155.88;10424836;28;20040;-70
2022/10/07 05:50:02;;;;;;;5.43;2.83;;;;;;;11.08;69.97;101146.59;10410055;28;20055;-67
2022/10/07 05:55:04;;;;;;;8.88;4.28;;;;;;;11.04;70.27;101139.78;10419047;28;20478;-69
2022/10/07 06:00:06;;;;;;;7.93;3.72;;;;;;;11.03;70.97;101136.25;10425095;28;20462;-69
2022/10/07 06:05:08;;;;;;;6.10;3.30;;;;;;;11.09;70.40;101148.31;10423883;28;20049;-68
2022/10/07 06:15:30;;;;;;;6.10;2.88;;;;;;;11.18;70.33;101136.19;10450218;28;20055;-71
2022/10/07 06:20:31;;;;;;;7.72;2.90;;;;;;;11.18;70.52;101137.00;10431274;28;20056;-70
2022/10/07 06:25:33;;;;;;;6.45;2.97;;;;;;;11.55;69.87;101138.94;10421482;28;20724;-71
2022/10/07 06:30:36;;;;;;;6.00;2.97;;;;;;;11.53;69.20;101147.06;10403265;28;20072;-70
2022/10/07 06:35:37;;;;;;;9.93;4.28;;;;;;;11.64;69.31;101154.28;10405527;28;20591;-71
2022/10/07 06:40:39;;;;;;;10.13;4.05;;;;;;;11.65;68.55;101150.69;10421843;28;20052;-71
2022/10/07 06:45:42;;;;;;;6.50;3.78;;;;;;;11.71;68.64;101149.38;10423717;28;20099;-70
2022/10/07 06:50:53;;;;;;;9.65;3.72;;;;;;;11.72;68.15;101132.41;10424116;28;20414;-69
2022/10/07 06:55:56;;;;;;;7.03;3.58;;;;;;;11.99;68.20;101138.47;10421060;28;20049;-70
2022/10/07 07:00:58;;;;;;;5.78;3.63;;;;;;;12.35;66.86;101149.22;10421519;28;20789;-70
2022/10/07 07:06:01;;;;;;;6.22;3.28;;;;;;;12.61;66.30;101155.31;10424882;28;20490;-71
2022/10/07 07:16:31;;;;;;;5.97;2.92;;;;;;;12.53;65.64;101149.69;10435241;28;20052;-70
2022/10/07 07:21:34;;;;;;;4.90;3.63;;;;;;;12.66;65.78;101131.78;10411082;28;20060;-68
2022/10/07 07:26:38;;;;;;;6.78;3.15;;;;;;;12.84;65.69;101134.03;10431060;28;20063;-69
2022/10/07 07:31:39;;;;;;;8.68;3.75;;;;;;;13.05;65.91;101131.53;10464565;28;20052;-70
2022/10/07 07:36:47;;;;;;;12.23;4.13;;;;;;;13.22;64.00;101131.06;10439247;28;20059;-70
2022/10/07 07:41:49;;;;;;;6.40;3.35;;;;;;;13.46;63.65;101123.97;10414969;28;20752;-69
2022/10/07 07:46:51;;;;;;;8.40;3.70;;;;;;;13.71;62.93;101129.06;10431408;28;21162;-69
2022/10/07 07:51:52;;;;;;;6.95;3.25;;;;;;;13.86;61.79;101128.81;10427490;28;20918;-69
2022/10/07 07:56:55;;;;;;;7.15;3.28;;;;;;;14.09;60.51;101126.94;10422915;28;20049;-69
2022/10/07 08:01:56;;;;;;;4.28;2.42;;;;;;;14.28;60.77;101127.13;10428655;28;20086;-68
2022/10/07 08:06:58;;;;;;;4.28;3.08;;;;;;;14.48;59.88;101116.59;10405865;28;20273;-69
2022/10/07 08:12:00;;;;;;;7.95;2.78;;;;;;;14.71;58.55;101103.13;10388893;28;20068;-69
2022/10/07 08:17:01;;;;;;;3.88;2.50;;;;;;;14.98;57.83;101103.47;10386310;28;20049;-68
2022/10/07 08:22:03;;;;;;;8.70;2.78;;;;;;;15.27;57.05;101094.72;10389436;28;20060;-68
2022/10/07 08:27:04;;;;;;;4.65;2.13;;;;;;;15.43;56.49;101086.16;10380234;28;20049;-67
2022/10/07 08:32:05;;;;;;;4.78;2.10;;;;;;;15.71;54.32;101097.16;10383938;28;20087;-70
2022/10/07 08:37:07;;;;;;;6.78;2.42;;;;;;;15.93;55.29;101089.88;10384466;28;20538;-70
2022/10/07 08:42:15;;;;;;;5.88;2.78;;;;;;;16.26;54.30;101088.69;10382365;28;20738;-70
2022/10/07 08:47:35;;;;;;;8.27;3.33;;;;;;;16.67;53.31;101081.31;10375739;28;20623;-69
2022/10/07 08:52:37;;;;;;;5.57;2.35;;;;;;;16.98;51.67;101082.97;10382988;28;20053;-71
2022/10/07 08:58:04;;;;;;;6.90;1.98;;;;;;;17.32;49.14;101075.22;10377407;28;20519;-70
2022/10/07 09:03:15;;;;;;;5.10;2.40;;;;;;;17.59;49.33;101074.41;10395484;28;20045;-69
2022/10/07 09:08:29;;;;;;;5.13;2.33;;;;;;;17.98;48.15;101062.59;10379126;28;20045;-68
2022/10/07 09:13:36;;;;;;;3.92;2.08;;;;;;;18.51;46.89;101052.81;10377492;28;20055;-69
2022/10/07 09:18:41;;;;;;;4.97;2.00;;;;;;;19.00;45.66;101047.78;10380201;28;21142;-69
2022/10/07 09:23:44;;;;;;;7.93;3.13;;;;;;;19.03;45.23;101052.03;10377963;28;20048;-68
2022/10/07 09:28:45;;;;;;;6.50;2.70;;;;;;;19.37;44.50;101030.44;10400632;28;20049;-70
2022/10/07 09:33:51;;;;;;;7.43;2.42;;;;;;;19.81;42.35;101025.91;10420284;28;20063;-68
2022/10/07 09:38:53;;;;;;;5.30;2.13;;;;;;;20.23;41.52;101024.94;10404958;28;20044;-69
2022/10/07 09:44:14;;;;;;;4.40;2.05;;;;;;;21.11;40.78;101016.06;10423735;28;20052;-68
2022/10/07 09:49:28;;;;;;;6.50;2.83;;;;;;;22.42;37.37;101017.19;10412534;28;20040;-70
2022/10/07 09:54:32;;;;;;;9.57;2.60;;;;;;;25.94;32.76;101021.03;10421492;28;20045;-68
2022/10/07 09:59:35;;;;;;;7.20;2.58;;;;;;;28.26;28.86;100999.88;10419782;28;20049;-69
2022/10/07 10:04:45;;;;;;;4.80;1.67;;;;;;;29.08;27.03;100999.75;10417435;28;20052;-69
2022/10/07 10:09:52;;;;;;;4.45;2.10;;;;;;;28.13;28.90;101006.28;10418530;28;20227;-69
2022/10/07 10:14:57;;;;;;;5.63;2.03;;;;;;;27.21;29.49;100995.59;10399961;28;20417;-70
2022/10/07 10:20:38;;;;;;;3.95;2.15;;;;;;;27.29;29.63;100984.41;10403125;28;20048;-70
2022/10/07 10:26:25;;;;;;;5.70;1.92;;;;;;;28.78;26.56;100978.56;10309800;28;20413;-68
2022/10/07 10:32:01;;;;;;;5.45;2.13;;;;;;;32.15;22.27;100959.66;10381229;28;20045;-70
2022/10/07 10:37:28;;;;;;;6.72;2.42;;;;;;;33.40;21.29;100950.91;10377580;28;20511;-70
2022/10/07 10:42:47;;;;;;;5.13;2.58;;;;;;;33.17;21.06;100940.16;10376762;28;20064;-70
2022/10/07 10:48:04;;;;;;;4.20;1.67;;;;;;;35.32;19.71;100940.13;10417613;28;20040;-71
2022/10/07 10:53:23;;;;;;;6.38;2.67;;;;;;;36.98;17.32;100932.25;10402782;28;20044;-69
2022/10/07 10:58:32;;;;;;;9.05;1.83;;;;;;;36.56;17.33;100916.84;10416921;28;20051;-71
2022/10/07 11:04:04;;;;;;;5.30;1.92;;;;;;;37.12;17.44;100914.97;10406669;28;20040;-70
2022/10/07 11:09:15;;;;;;;5.57;2.13;;;;;;;38.74;15.81;100906.66;10370961;28;20041;-71
2022/10/07 11:14:21;;;;;;;8.73;2.72;;;;;;;40.08;14.71;100885.16;10371280;28;20049;-70
2022/10/07 11:19:27;;;;;;;4.00;1.85;;;;;;;40.62;13.92;100877.13;10376749;28;20089;-71
2022/10/07 11:24:35;;;;;;;5.60;1.70;;;;;;;41.07;13.78;100866.09;10375044;28;20053;-71
2022/10/07 11:30:00;;;;;;;5.82;1.83;;;;;;;39.84;14.15;100857.41;10373749;28;20057;-72
2022/10/07 11:35:20;;;;;;;5.40;2.05;;;;;;;39.05;14.69;100858.91;10371209;28;20519;-71
2022/10/07 11:40:24;;;;;;;5.47;2.30;;;;;;;38.25;15.11;100847.44;10373387;28;20041;-71
2022/10/07 11:45:36;;;;;;;5.38;2.40;;;;;;;37.04;16.20;100835.09;10374492;28;20049;-71
2022/10/07 11:50:43;;;;;;;6.03;2.38;;;;;;;35.90;17.17;100813.38;10376520;28;21385;-71
2022/10/07 11:55:55;;;;;;;3.63;1.58;;;;;;;34.83;18.33;100803.91;10372912;28;20261;-72
2022/10/07 12:01:25;;;;;;;5.30;1.73;;;;;;;35.73;17.61;100798.97;10369484;28;20056;-70
2022/10/07 12:06:27;;;;;;;4.20;1.40;;;;;;;35.50;18.29;100792.91;10371660;28;20136;-70
2022/10/07 12:11:31;;;;;;;3.92;1.65;;;;;;;34.68;18.85;100778.94;10378173;28;20071;-68
2022/10/07 12:16:32;;;;;;;6.82;1.98;;;;;;;35.83;17.75;100767.69;10378982;28;20056;-70
2022/10/07 12:21:58;;;;;;;6.18;1.23;;;;;;;37.36;16.82;100753.31;10384894;28;20045;-70
2022/10/07 12:27:16;;;;;;;4.45;1.80;;;;;;;37.95;15.96;100748.56;10380771;28;20495;-71
2022/10/07 12:32:42;;;;;;;3.33;1.10;;;;;;;38.76;15.58;100739.47;10382824;28;20053;-71
2022/10/07 12:37:45;;;;;;;3.95;1.58;;;;;;;40.46;14.55;100732.44;10379735;28;20061;-70
2022/10/07 12:42:55;;;;;;;5.18;1.60;;;;;;;39.54;14.98;100720.34;10415652;28;20411;-71
2022/10/07 12:47:59;;;;;;;5.57;1.63;;;;;;;41.72;13.21;100717.84;10422826;28;20049;-71
2022/10/07 12:53:02;;;;;;;3.15;0.90;;;;;;;42.89;12.66;100709.81;10423687;28;20040;-73
2022/10/07 13:04:35;;;;;;;4.20;0.90;;;;;;;43.40;11.88;100685.63;10379536;28;20049;-73
2022/10/07 13:10:02;;;;;;;2.97;0.90;;;;;;;43.74;12.02;100683.03;10385175;28;20428;-71
2022/10/07 13:15:40;;;;;;;2.85;1.00;;;;;;;40.61;13.48;100669.03;10381495;28;20056;-72
2022/10/07 13:20:44;;;;;;;;;;;;;;;42.12;13.55;100665.50;10386489;28;20128;-73
2022/10/07 13:25:55;;;;;;;5.07;0.90;;;;;;;42.42;13.00;100657.31;10383116;28;20003;-71
2022/10/07 13:31:11;;;;;;;4.15;1.00;;;;;;;40.06;14.47;100648.53;10383156;28;20044;-73
2022/10/07 13:36:29;;;;;;;6.13;1.05;;;;;;;39.62;15.14;100627.75;10393987;28;20041;-72
2022/10/07 13:41:30;;;;;;;7.60;1.10;;;;;;;37.70;16.46;100625.53;10381524;28;20049;-73
2022/10/07 13:46:34;;;;;;;3.15;0.70;;;;;;;37.88;17.39;100620.31;10377625;28;20056;-70
2022/10/07 13:51:39;;;;;;;4.53;1.00;;;;;;;37.86;16.63;100606.72;10383582;28;20843;-72
2022/10/07 13:56:41;;;;;;;3.38;0.90;;;;;;;38.05;16.82;100603.97;10376440;28;20590;-72
2022/10/07 14:01:47;;;;;;;1.98;0.88;;;;;;;37.80;16.78;100591.25;10383171;28;20055;-71
2022/10/07 14:07:16;;;;;;;3.45;0.90;;;;;;;36.72;17.84;100584.91;10386499;28;20057;-71
2022/10/07 14:12:21;;;;;;;3.25;0.95;;;;;;;37.13;17.76;100570.63;10390268;28;20049;-69
2022/10/07 14:17:31;;;;;;;4.47;1.15;;;;;;;37.47;17.47;100574.44;10382078;28;20572;-71
2022/10/07 14:22:40;;;;;;;4.15;1.40;;;;;;;35.58;19.26;100565.38;10381091;28;20765;-72
2022/10/07 14:27:45;;;;;;;3.73;0.90;;;;;;;33.02;21.82;100552.88;10377219;28;20064;-71
2022/10/07 14:38:18;;;;;;;4.53;1.20;;;;;;;27.31;29.08;100545.03;10379853;28;20547;-72
2022/10/07 14:43:20;;;;;;;4.07;0.98;;;;;;;26.25;31.68;100547.63;10379131;28;20496;-71
2022/10/07 14:48:21;;;;;;;3.53;0.77;;;;;;;24.99;33.33;100536.94;10381137;28;20045;-70
2022/10/07 14:53:22;;;;;;;4.78;1.10;;;;;;;24.17;35.24;100530.84;10418733;28;20052;-68
2022/10/07 14:58:24;;;;;;;7.30;1.23;;;;;;;23.80;36.83;100514.00;10406296;28;20409;-70
2022/10/07 15:03:25;;;;;;;4.47;1.27;;;;;;;23.23;37.87;100525.03;10399454;28;20049;-69
2022/10/07 15:08:26;;;;;;;5.07;1.17;;;;;;;22.94;38.54;100526.91;10413152;28;20048;-70
2022/10/07 15:13:28;;;;;;;5.07;1.40;;;;;;;22.48;39.99;100515.72;10417076;28;20136;-69
2022/10/07 15:18:29;;;;;;;2.67;1.05;;;;;;;22.23;40.54;100506.06;10414804;28;20052;-68
2022/10/07 15:23:30;;;;;;;6.32;1.58;;;;;;;21.60;41.99;100499.53;10399494;28;20052;-68
2022/10/07 15:28:32;;;;;;;5.40;1.50;;;;;;;21.44;42.48;100506.81;10419493;28;20057;-67
2022/10/07 15:33:35;;;;;;;7.05;2.83;;;;;;;21.50;42.85;100497.16;10420543;28;20110;-69
2022/10/07 15:38:36;;;;;;;4.72;1.55;;;;;;;21.51;43.69;100494.25;10417916;28;20055;-75
2022/10/07 15:43:38;;;;;;;3.17;1.45;;;;;;;21.25;43.70;100496.59;10421286;28;20429;-67
2022/10/07 15:48:39;;;;;;;3.97;1.65;;;;;;;21.12;44.08;100492.66;10410229;28;20048;-69
2022/10/07 15:53:40;;;;;;;5.07;1.42;;;;;;;20.90;45.46;100486.31;10422394;28;20053;-68
2022/10/07 15:58:43;;;;;;;3.03;1.15;;;;;;;20.91;45.36;100492.56;10420809;28;20524;-69
2022/10/07 16:03:47;;;;;;;9.30;1.67;;;;;;;20.81;45.28;100488.25;10402467;28;20049;-71
2022/10/07 16:08:53;;;;;;;4.63;2.10;;;;;;;20.62;46.43;100496.88;10413858;28;20276;-70
2022/10/07 16:13:55;;;;;;;7.05;1.98;;;;;;;20.48;47.34;100502.06;10436704;28;20056;-71
2022/10/07 16:18:57;;;;;;;4.18;1.88;;;;;;;20.27;47.37;100504.63;10425052;28;20056;-69
2022/10/07 16:24:11;;;;;;;6.43;1.70;;;;;;;20.05;48.41;100501.72;10420455;28;20071;-68
2022/10/07 16:34:37;;;;;;;6.20;1.92;;;;;;;19.80;49.92;100484.00;10420641;28;20041;-69
2022/10/07 16:39:38;;;;;;;6.80;3.33;;;;;;;19.73;50.92;100487.38;10414842;28;20064;-69
2022/10/07 16:44:39;;;;;;;3.75;2.08;;;;;;;19.60;50.53;100482.53;10404468;28;20048;-68
2022/10/07 16:49:41;;;;;;;8.43;2.50;;;;;;;19.43;50.95;100472.88;10399627;28;20051;-68
2022/10/07 16:54:42;;;;;;;5.03;2.80;;;;;;;19.33;50.73;100477.63;10410385;28;20053;-68
2022/10/07 16:59:44;;;;;;;6.82;2.47;;;;;;;19.29;51.92;100470.91;10398599;28;20432;-69
2022/10/07 17:04:45;;;;;;;9.38;3.70;;;;;;;19.16;53.00;100482.25;10400770;28;20053;-69
2022/10/07 17:09:47;;;;;;;7.40;3.70;;;;;;;19.07;52.83;100484.97;10411995;28;20052;-71
2022/10/07 17:14:48;;;;;;;5.97;3.33;;;;;;;18.99;54.48;100487.72;10416552;28;20064;-67
2022/10/07 17:19:50;;;;;;;4.88;3.17;;;;;;;18.92;54.51;100492.09;10401738;28;20052;-68
2022/10/07 17:24:51;;;;;;;5.95;3.78;;;;;;;18.93;53.81;100480.31;10419197;28;20399;-71
2022/10/07 17:29:54;;;;;;;5.68;4.00;;;;;;;18.93;54.89;100492.94;10402563;28;20134;-72
2022/10/07 17:34:55;;;;;;;8.70;5.68;;;;;;;18.80;55.11;100478.09;10421662;28;20627;-70
2022/10/07 17:39:56;;;;;;;7.68;4.75;;;;;;;18.71;56.30;100477.28;10423740;28;20086;-71
2022/10/07 17:44:59;;;;;;;10.93;5.75;;;;;;;18.64;56.51;100480.81;10430778;28;20048;-70
2022/10/07 17:50:00;;;;;;;9.55;4.78;;;;;;;18.51;57.31;100489.41;10428480;28;20399;-69
2022/10/07 17:55:03;;;;;;;7.93;5.32;;;;;;;18.35;57.73;100490.28;10403278;28;20055;-70
2022/10/07 18:00:05;;;;;;;8.98;5.47;;;;;;;18.38;57.45;100484.56;10406377;28;20060;-68
2022/10/07 18:05:07;;;;;;;9.48;6.00;;;;;;;18.31;58.20;100473.59;10418574;28;20288;-70
2022/10/07 18:10:08;;;;;;;12.25;5.95;;;;;;;18.26;58.47;100475.97;10410712;28;20862;-72
2022/10/07 18:15:19;;;;;;;11.63;7.88;;;;;;;18.17;58.98;100487.75;10419796;28;20071;-70
2022/10/07 18:20:21;;;;;;;22.02;15.23;;;;;;;18.12;59.09;100471.25;10410281;28;20064;-71
2022/10/07 18:25:23;;;;;;;18.25;14.07;;;;;;;18.07;59.57;100470.91;10424634;28;20044;-69
2022/10/07 18:30:24;;;;;;;10.82;8.02;;;;;;;18.00;59.89;100470.75;10418480;28;20341;-68
2022/10/07 18:35:26;;;;;;;11.45;7.50;;;;;;;17.99;59.87;100467.19;10415759;28;20048;-70
2022/10/07 18:40:27;;;;;;;11.43;8.35;;;;;;;17.90;60.01;100456.59;10418507;28;20048;-68
2022/10/07 18:45:28;;;;;;;12.60;7.13;;;;;;;17.83;60.22;100454.53;10416281;28;20503;-72
2022/10/07 18:50:30;;;;;;;9.77;7.38;;;;;;;17.72;59.75;100456.69;10416435;28;20052;-70
2022/10/07 18:55:37;;;;;;;9.07;6.05;;;;;;;17.69;61.06;100446.25;10418109;28;20048;-69
2022/10/07 19:00:42;;;;;;;7.30;5.35;;;;;;;17.85;60.70;100446.28;10405225;28;20053;-71
2022/10/07 19:05:45;;;;;;;8.63;4.43;;;;;;;17.87;60.25;100446.97;10414398;28;20049;-70
2022/10/07 19:10:46;;;;;;;5.90;3.95;;;;;;;17.91;60.70;100442.97;10395432;28;20064;-70
2022/10/07 19:15:48;;;;;;;10.52;6.07;;;;;;;17.85;60.37;100446.28;10408891;28;21079;-69
2022/10/07 19:20:57;;;;;;;6.57;5.38;;;;;;;17.91;60.41;100442.09;10407090;28;20056;-69
2022/10/07 19:26:00;;;;;;;9.10;6.20;;;;;;;17.86;60.87;100439.88;10424264;28;20064;-69
2022/10/07 19:31:12;;;;;;;7.45;5.88;;;;;;;17.83;60.86;100442.91;10403261;28;20052;-72
2022/10/07 19:36:13;;;;;;;7.53;6.18;;;;;;;17.80;60.98;100429.78;10424173;28;20049;-71
2022/10/07 19:41:15;;;;;;;10.63;6.88;;;;;;;17.65;60.71;100430.44;10406188;28;20064;-69
2022/10/07 19:46:19;;;;;;;10.00;6.93;;;;;;;17.74;61.19;100431.28;10419724;28;20061;-70
2022/10/07 19:51:20;;;;;;;9.88;6.43;;;;;;;17.72;61.52;100430.63;10424588;28;20041;-71
2022/10/07 19:56:23;;;;;;;12.52;7.80;;;;;;;17.55;61.72;100427.06;10407698;28;20067;-70
2022/10/07 20:01:27;;;;;;;10.50;7.55;;;;;;;17.59;62.10;100425.69;10426325;28;20044;-69
2022/10/07 20:06:28;;;;;;;12.90;9.00;;;;;;;17.43;62.69;100420.28;10422160;28;20102;-69
2022/10/07 20:11:30;;;;;;;16.35;9.77;;;;;;;17.31;63.12;100423.28;10420241;28;20585;-70
2022/10/07 20:16:32;;;;;;;10.95;9.75;;;;;;;17.31;64.01;100423.28;10423707;28;20218;-71
2022/10/07 20:21:36;;;;;;;14.75;9.70;;;;;;;17.28;63.54;100412.84;10420680;28;20053;-69
2022/10/07 20:26:37;;;;;;;;;;;;;;;17.25;64.14;100412.31;10423341;28;20056;-73
2022/10/07 20:31:40;;;;;;;11.07;9.13;;;;;;;17.21;64.55;100409.13;10404944;28;19924;-71
2022/10/07 20:36:42;;;;;;;9.90;7.25;;;;;;;17.08;64.55;100406.06;10425110;28;20627;-69
2022/10/07 20:47:05;;;;;;;11.90;7.53;;;;;;;16.86;64.92;100413.66;10428195;28;20049;-70
2022/10/07 20:52:12;;;;;;;15.50;10.83;;;;;;;16.86;65.45;100412.81;10432586;28;20052;-69
2022/10/07 20:57:16;;;;;;;13.73;10.70;;;;;;;16.80;65.63;100417.00;10426421;28;20048;-69
2022/10/07 21:02:20;;;;;;;11.02;7.68;;;;;;;16.81;66.21;100409.78;10433275;28;20045;-69
2022/10/07 21:07:22;;;;;;;15.80;10.23;;;;;;;16.83;65.70;100413.13;10416393;28;20044;-69
2022/10/07 21:12:23;;;;;;;12.80;9.65;;;;;;;16.79;66.33;100418.00;10418861;28;20055;-71
2022/10/07 21:17:25;;;;;;;13.13;9.80;;;;;;;16.69;65.90;100395.75;10433033;28;20573;-71
2022/10/07 21:22:27;;;;;;;15.57;9.55;;;;;;;16.69;66.17;100406.50;10438676;28;20333;-72
2022/10/07 21:27:29;;;;;;;13.48;8.57;;;;;;;16.67;65.85;100397.78;10422961;28;20049;-70
2022/10/07 21:32:30;;;;;;;12.18;8.38;;;;;;;16.57;66.64;100388.00;10419630;28;20482;-72
2022/10/07 21:37:31;;;;;;;14.23;8.07;;;;;;;16.57;66.61;100388.00;10419225;28;20048;-72
2022/10/07 21:42:32;;;;;;;9.55;7.07;;;;;;;16.48;67.14;100380.84;10432051;28;20044;-70
2022/10/07 21:47:34;;;;;;;9.70;7.45;;;;;;;16.41;67.31;100382.53;10436644;28;20048;-70
2022/10/07 21:52:35;;;;;;;9.77;6.82;;;;;;;16.32;67.57;100396.88;10419796;28;20049;-72
2022/10/07 21:57:36;;;;;;;10.65;6.78;;;;;;;16.34;67.71;100387.66;10395850;28;20045;-72
2022/10/07 22:02:38;;;;;;;8.63;6.60;;;;;;;16.20;68.28;100391.78;10391818;28;20656;-69
2022/10/07 22:12:59;;;;;;;11.60;7.30;;;;;;;16.07;68.67;100391.34;10391606;28;20049;-69
2022/10/07 22:18:02;;;;;;;12.63;8.07;;;;;;;16.04;69.96;100388.97;10390578;28;20051;-71
2022/10/07 22:23:03;;;;;;;10.85;7.50;;;;;;;15.95;69.73;100387.22;10388959;28;20568;-72
2022/10/07 22:28:04;;;;;;;13.45;7.60;;;;;;;15.96;69.58;100389.75;10408687;28;20079;-72
2022/10/07 22:33:06;;;;;;;9.90;6.38;;;;;;;15.83;70.23;100374.03;10394519;28;20113;-69
2022/10/07 22:38:07;;;;;;;15.02;6.43;;;;;;;15.76;70.70;100374.78;10411506;28;20065;-69
2022/10/07 22:43:08;;;;;;;8.88;6.10;;;;;;;15.78;71.04;100370.13;10405897;28;20507;-71
2022/10/07 22:48:10;;;;;;;11.20;6.00;;;;;;;15.92;70.44;100366.06;10395954;28;20699;-70
2022/10/07 22:53:11;;;;;;;9.93;5.38;;;;;;;15.95;70.55;100374.63;10393220;28;20065;-69
2022/10/07 22:58:12;;;;;;;9.93;5.38;;;;;;;15.95;70.87;100374.63;10394919;28;20673;-69
2022/10/07 23:03:14;;;;;;;10.52;5.20;;;;;;;15.95;70.63;100381.84;10387975;28;20056;-69
2022/10/07 23:08:15;;;;;;;9.93;6.00;;;;;;;15.90;70.76;100367.03;10389699;28;20207;-70
2022/10/07 23:13:17;;;;;;;12.65;6.20;;;;;;;15.88;71.25;100358.31;10393726;28;20056;-71
2022/10/07 23:18:18;;;;;;;10.27;5.85;;;;;;;15.87;71.17;100359.31;10396730;28;20151;-72
2022/10/07 23:23:19;;;;;;;10.85;6.85;;;;;;;15.65;71.52;100354.38;10391452;28;20049;-69
2022/10/07 23:28:24;;;;;;;14.27;6.55;;;;;;;15.66;72.07;100356.09;10393059;28;20072;-70
2022/10/07 23:33:25;;;;;;;12.10;5.70;;;;;;;15.51;72.51;100356.59;10390868;28;20550;-70
2022/10/07 23:38:27;;;;;;;10.45;5.97;;;;;;;15.40;73.11;100359.50;10432446;28;20060;-72
2022/10/07 23:43:32;;;;;;;10.93;5.82;;;;;;;15.49;72.91;100355.94;10419404;28;20056;-70
2022/10/07 23:48:34;;;;;;;7.20;4.95;;;;;;;15.45;73.05;100341.13;10391661;28;20053;-69
2022/10/07 23:53:35;;;;;;;10.63;6.63;;;;;;;15.55;72.83;100339.22;10390544;28;20526;-71
2022/10/07 23:58:37;;;;;;;11.35;6.40;;;;;;;15.56;72.57;100338.19;10390422;28;20129;-70
